sensor_id;sensor_type;location;lat;lon;timestamp;temperature;humidity
6270;DHT22;3168;51.684;6.954;2022-08-01T00:01:08;19.10;99.90
6270;DHT22;3168;51.684;6.954;2022-08-01T00:03:46;19.10;99.90
6270;DHT22;3168;51.684;6.954;2022-08-01T00:06:24;19.10;99.90
6270;DHT22;3168;51.684;6.954;2022-08-01T00:09:03;19.00;99.90
6270;DHT22;3168;51.684;6.954;2022-08-01T00:11:41;19.10;99.90
6270;DHT22;3168;51.684;6.954;2022-08-01T00:14:19;19.10;99.90
6270;DHT22;3168;51.684;6.954;2022-08-01T00:16:57;19.10;99.90
6270;DHT22;3168;51.684;6.954;2022-08-01T00:19:35;19.10;99.90
6270;DHT22;3168;51.684;6.954;2022-08-01T00:22:13;19.00;99.90
6270;DHT22;3168;51.684;6.954;2022-08-01T00:24:52;19.00;99.90
6270;DHT22;3168;51.684;6.954;2022-08-01T00:27:30;19.10;99.90
6270;DHT22;3168;51.684;6.954;2022-08-01T00:30:09;19.00;99.90
6270;DHT22;3168;51.684;6.954;2022-08-01T00:32:47;19.00;99.90
6270;DHT22;3168;51.684;6.954;2022-08-01T00:35:25;19.00;99.90
6270;DHT22;3168;51.684;6.954;2022-08-01T00:38:03;19.00;99.90
6270;DHT22;3168;51.684;6.954;2022-08-01T00:40:41;18.90;99.90
6270;DHT22;3168;51.684;6.954;2022-08-01T00:43:20;19.10;99.90
6270;DHT22;3168;51.684;6.954;2022-08-01T00:45:58;19.00;99.90
6270;DHT22;3168;51.684;6.954;2022-08-01T00:48:37;19.00;99.90
6270;DHT22;3168;51.684;6.954;2022-08-01T00:51:15;19.00;99.90
6270;DHT22;3168;51.684;6.954;2022-08-01T00:53:53;18.80;99.90
6270;DHT22;3168;51.684;6.954;2022-08-01T00:56:32;19.00;99.90
6270;DHT22;3168;51.684;6.954;2022-08-01T00:59:11;19.00;99.90
6270;DHT22;3168;51.684;6.954;2022-08-01T01:01:48;19.00;99.90
6270;DHT22;3168;51.684;6.954;2022-08-01T01:04:26;19.00;99.90
6270;DHT22;3168;51.684;6.954;2022-08-01T01:07:25;19.00;99.90
6270;DHT22;3168;51.684;6.954;2022-08-01T01:10:22;19.00;99.90
6270;DHT22;3168;51.684;6.954;2022-08-01T01:13:19;19.00;99.90
6270;DHT22;3168;51.684;6.954;2022-08-01T01:15:59;19.00;99.90
6270;DHT22;3168;51.684;6.954;2022-08-01T01:18:37;19.00;99.90
6270;DHT22;3168;51.684;6.954;2022-08-01T01:21:35;19.00;99.90
6270;DHT22;3168;51.684;6.954;2022-08-01T01:24:31;19.00;99.90
6270;DHT22;3168;51.684;6.954;2022-08-01T01:27:18;19.00;99.90
6270;DHT22;3168;51.684;6.954;2022-08-01T01:29:59;19.00;99.90
6270;DHT22;3168;51.684;6.954;2022-08-01T01:32:39;19.00;99.90
6270;DHT22;3168;51.684;6.954;2022-08-01T01:35:19;19.10;99.90
6270;DHT22;3168;51.684;6.954;2022-08-01T01:37:58;19.00;99.90
6270;DHT22;3168;51.684;6.954;2022-08-01T01:40:35;19.10;99.90
6270;DHT22;3168;51.684;6.954;2022-08-01T01:43:13;19.00;99.90
6270;DHT22;3168;51.684;6.954;2022-08-01T01:45:51;19.00;99.90
6270;DHT22;3168;51.684;6.954;2022-08-01T01:48:30;19.00;99.90
6270;DHT22;3168;51.684;6.954;2022-08-01T01:51:08;19.00;99.90
6270;DHT22;3168;51.684;6.954;2022-08-01T01:53:46;19.00;99.90
6270;DHT22;3168;51.684;6.954;2022-08-01T01:56:24;19.00;99.90
6270;DHT22;3168;51.684;6.954;2022-08-01T01:59:02;19.10;99.90
6270;DHT22;3168;51.684;6.954;2022-08-01T02:01:41;19.10;99.90
6270;DHT22;3168;51.684;6.954;2022-08-01T02:04:19;19.10;99.90
6270;DHT22;3168;51.684;6.954;2022-08-01T02:06:57;19.10;99.90
6270;DHT22;3168;51.684;6.954;2022-08-01T02:09:35;19.10;99.90
6270;DHT22;3168;51.684;6.954;2022-08-01T02:12:14;19.10;99.90
6270;DHT22;3168;51.684;6.954;2022-08-01T02:14:52;19.10;99.90
6270;DHT22;3168;51.684;6.954;2022-08-01T02:17:30;19.10;99.90
6270;DHT22;3168;51.684;6.954;2022-08-01T02:20:09;19.00;99.90
6270;DHT22;3168;51.684;6.954;2022-08-01T02:22:50;19.00;99.90
6270;DHT22;3168;51.684;6.954;2022-08-01T02:25:42;19.00;99.90
6270;DHT22;3168;51.684;6.954;2022-08-01T02:28:22;19.00;99.90
6270;DHT22;3168;51.684;6.954;2022-08-01T02:31:01;19.00;99.90
6270;DHT22;3168;51.684;6.954;2022-08-01T02:33:40;19.00;99.90
6270;DHT22;3168;51.684;6.954;2022-08-01T02:36:16;19.00;99.90
6270;DHT22;3168;51.684;6.954;2022-08-01T02:38:55;19.00;99.90
6270;DHT22;3168;51.684;6.954;2022-08-01T02:41:33;19.00;99.90
6270;DHT22;3168;51.684;6.954;2022-08-01T02:44:14;18.90;99.90
6270;DHT22;3168;51.684;6.954;2022-08-01T02:46:51;18.90;99.90
6270;DHT22;3168;51.684;6.954;2022-08-01T02:49:31;18.90;99.90
6270;DHT22;3168;51.684;6.954;2022-08-01T02:52:10;18.80;99.90
6270;DHT22;3168;51.684;6.954;2022-08-01T02:54:48;18.90;99.90
6270;DHT22;3168;51.684;6.954;2022-08-01T02:57:25;18.80;99.90
6270;DHT22;3168;51.684;6.954;2022-08-01T03:00:04;18.70;99.90
6270;DHT22;3168;51.684;6.954;2022-08-01T03:02:43;18.60;99.90
6270;DHT22;3168;51.684;6.954;2022-08-01T03:05:22;18.50;99.90
6270;DHT22;3168;51.684;6.954;2022-08-01T03:08:00;18.70;99.90
6270;DHT22;3168;51.684;6.954;2022-08-01T03:10:38;18.60;99.90
6270;DHT22;3168;51.684;6.954;2022-08-01T03:13:16;18.70;99.90
6270;DHT22;3168;51.684;6.954;2022-08-01T03:15:54;18.70;99.90
6270;DHT22;3168;51.684;6.954;2022-08-01T03:18:32;18.70;99.90
6270;DHT22;3168;51.684;6.954;2022-08-01T03:21:10;18.70;99.90
6270;DHT22;3168;51.684;6.954;2022-08-01T03:23:49;18.70;99.90
6270;DHT22;3168;51.684;6.954;2022-08-01T03:26:27;18.70;99.90
6270;DHT22;3168;51.684;6.954;2022-08-01T03:29:06;18.70;99.90
6270;DHT22;3168;51.684;6.954;2022-08-01T03:31:44;18.70;99.90
6270;DHT22;3168;51.684;6.954;2022-08-01T03:34:22;18.70;99.90
6270;DHT22;3168;51.684;6.954;2022-08-01T03:37:03;18.70;99.90
6270;DHT22;3168;51.684;6.954;2022-08-01T03:39:47;18.70;99.90
6270;DHT22;3168;51.684;6.954;2022-08-01T03:42:26;18.70;99.90
6270;DHT22;3168;51.684;6.954;2022-08-01T03:45:07;18.70;99.90
6270;DHT22;3168;51.684;6.954;2022-08-01T03:47:43;18.60;99.90
6270;DHT22;3168;51.684;6.954;2022-08-01T03:50:21;18.70;99.90
6270;DHT22;3168;51.684;6.954;2022-08-01T03:53:00;18.70;99.90
6270;DHT22;3168;51.684;6.954;2022-08-01T03:55:38;18.50;99.90
6270;DHT22;3168;51.684;6.954;2022-08-01T03:58:16;18.70;99.90
6270;DHT22;3168;51.684;6.954;2022-08-01T04:00:55;18.80;99.90
6270;DHT22;3168;51.684;6.954;2022-08-01T04:03:32;18.70;99.90
6270;DHT22;3168;51.684;6.954;2022-08-01T04:06:11;18.70;99.90
6270;DHT22;3168;51.684;6.954;2022-08-01T04:08:49;18.80;99.90
6270;DHT22;3168;51.684;6.954;2022-08-01T04:11:33;18.70;99.90
6270;DHT22;3168;51.684;6.954;2022-08-01T04:14:11;18.70;99.90
6270;DHT22;3168;51.684;6.954;2022-08-01T04:16:50;18.70;99.90
6270;DHT22;3168;51.684;6.954;2022-08-01T04:19:28;18.70;99.90
6270;DHT22;3168;51.684;6.954;2022-08-01T04:22:06;18.70;99.90
6270;DHT22;3168;51.684;6.954;2022-08-01T04:24:44;18.70;99.90
6270;DHT22;3168;51.684;6.954;2022-08-01T04:27:25;18.60;99.90
6270;DHT22;3168;51.684;6.954;2022-08-01T04:30:02;18.70;99.90
6270;DHT22;3168;51.684;6.954;2022-08-01T04:32:40;18.70;99.90
6270;DHT22;3168;51.684;6.954;2022-08-01T04:35:19;18.70;99.90
6270;DHT22;3168;51.684;6.954;2022-08-01T04:37:57;18.70;99.90
6270;DHT22;3168;51.684;6.954;2022-08-01T04:40:35;18.80;99.90
6270;DHT22;3168;51.684;6.954;2022-08-01T04:43:14;18.80;99.90
6270;DHT22;3168;51.684;6.954;2022-08-01T04:45:52;18.80;99.90
6270;DHT22;3168;51.684;6.954;2022-08-01T04:48:31;18.70;99.90
6270;DHT22;3168;51.684;6.954;2022-08-01T04:51:11;18.70;99.90
6270;DHT22;3168;51.684;6.954;2022-08-01T04:53:49;18.70;99.90
6270;DHT22;3168;51.684;6.954;2022-08-01T04:56:27;18.80;99.90
6270;DHT22;3168;51.684;6.954;2022-08-01T04:59:05;18.80;99.90
6270;DHT22;3168;51.684;6.954;2022-08-01T05:01:49;18.80;99.90
6270;DHT22;3168;51.684;6.954;2022-08-01T05:04:28;18.80;99.90
6270;DHT22;3168;51.684;6.954;2022-08-01T05:07:06;18.90;99.90
6270;DHT22;3168;51.684;6.954;2022-08-01T05:09:44;18.80;99.90
6270;DHT22;3168;51.684;6.954;2022-08-01T05:12:24;18.80;99.90
6270;DHT22;3168;51.684;6.954;2022-08-01T05:15:03;18.80;99.90
6270;DHT22;3168;51.684;6.954;2022-08-01T05:17:41;18.90;99.90
6270;DHT22;3168;51.684;6.954;2022-08-01T05:20:20;18.90;99.90
6270;DHT22;3168;51.684;6.954;2022-08-01T05:22:58;18.80;99.90
6270;DHT22;3168;51.684;6.954;2022-08-01T05:25:36;18.90;99.90
6270;DHT22;3168;51.684;6.954;2022-08-01T05:28:14;18.90;99.90
6270;DHT22;3168;51.684;6.954;2022-08-01T05:30:52;19.00;99.90
6270;DHT22;3168;51.684;6.954;2022-08-01T05:33:30;19.10;99.90
6270;DHT22;3168;51.684;6.954;2022-08-01T05:36:09;19.10;99.90
6270;DHT22;3168;51.684;6.954;2022-08-01T05:38:47;19.10;99.90
6270;DHT22;3168;51.684;6.954;2022-08-01T05:41:25;19.10;99.90
6270;DHT22;3168;51.684;6.954;2022-08-01T05:44:04;19.10;99.90
6270;DHT22;3168;51.684;6.954;2022-08-01T05:46:42;19.10;99.90
6270;DHT22;3168;51.684;6.954;2022-08-01T05:49:20;19.10;99.90
6270;DHT22;3168;51.684;6.954;2022-08-01T05:51:58;19.20;99.90
6270;DHT22;3168;51.684;6.954;2022-08-01T05:54:37;19.40;99.90
6270;DHT22;3168;51.684;6.954;2022-08-01T05:57:15;19.40;99.90
6270;DHT22;3168;51.684;6.954;2022-08-01T05:59:53;19.40;99.90
6270;DHT22;3168;51.684;6.954;2022-08-01T06:02:31;19.30;99.90
6270;DHT22;3168;51.684;6.954;2022-08-01T06:05:09;19.20;99.90
6270;DHT22;3168;51.684;6.954;2022-08-01T06:07:47;19.20;99.90
6270;DHT22;3168;51.684;6.954;2022-08-01T06:10:25;19.10;99.90
6270;DHT22;3168;51.684;6.954;2022-08-01T06:13:04;19.10;99.90
6270;DHT22;3168;51.684;6.954;2022-08-01T06:15:42;19.10;99.90
6270;DHT22;3168;51.684;6.954;2022-08-01T06:18:20;19.20;99.90
6270;DHT22;3168;51.684;6.954;2022-08-01T06:20:58;19.10;99.90
6270;DHT22;3168;51.684;6.954;2022-08-01T06:23:36;19.10;99.90
6270;DHT22;3168;51.684;6.954;2022-08-01T06:26:17;19.20;99.90
6270;DHT22;3168;51.684;6.954;2022-08-01T06:28:53;19.20;99.90
6270;DHT22;3168;51.684;6.954;2022-08-01T06:31:31;19.10;99.90
6270;DHT22;3168;51.684;6.954;2022-08-01T06:34:09;19.40;99.90
6270;DHT22;3168;51.684;6.954;2022-08-01T06:36:47;19.30;99.90
6270;DHT22;3168;51.684;6.954;2022-08-01T06:39:26;19.30;99.90
6270;DHT22;3168;51.684;6.954;2022-08-01T06:42:04;19.40;99.90
6270;DHT22;3168;51.684;6.954;2022-08-01T06:44:42;19.40;99.90
6270;DHT22;3168;51.684;6.954;2022-08-01T06:47:20;19.50;99.90
6270;DHT22;3168;51.684;6.954;2022-08-01T06:49:59;19.50;99.90
6270;DHT22;3168;51.684;6.954;2022-08-01T06:52:37;19.50;99.90
6270;DHT22;3168;51.684;6.954;2022-08-01T06:55:16;19.60;99.90
6270;DHT22;3168;51.684;6.954;2022-08-01T06:57:54;19.60;99.90
6270;DHT22;3168;51.684;6.954;2022-08-01T07:00:32;19.70;99.90
6270;DHT22;3168;51.684;6.954;2022-08-01T07:03:10;19.80;99.90
6270;DHT22;3168;51.684;6.954;2022-08-01T07:05:49;19.90;99.90
6270;DHT22;3168;51.684;6.954;2022-08-01T07:08:27;20.00;99.90
6270;DHT22;3168;51.684;6.954;2022-08-01T07:11:05;20.10;99.90
6270;DHT22;3168;51.684;6.954;2022-08-01T07:13:43;20.10;99.90
6270;DHT22;3168;51.684;6.954;2022-08-01T07:16:21;20.20;99.90
6270;DHT22;3168;51.684;6.954;2022-08-01T07:19:01;20.40;99.90
6270;DHT22;3168;51.684;6.954;2022-08-01T07:21:39;20.40;99.90
6270;DHT22;3168;51.684;6.954;2022-08-01T07:24:17;20.50;99.90
6270;DHT22;3168;51.684;6.954;2022-08-01T07:26:55;20.50;99.90
6270;DHT22;3168;51.684;6.954;2022-08-01T07:29:33;20.40;99.90
6270;DHT22;3168;51.684;6.954;2022-08-01T07:32:11;20.20;99.90
6270;DHT22;3168;51.684;6.954;2022-08-01T07:34:49;20.20;99.90
6270;DHT22;3168;51.684;6.954;2022-08-01T07:37:28;20.30;99.90
6270;DHT22;3168;51.684;6.954;2022-08-01T07:40:07;20.40;99.90
6270;DHT22;3168;51.684;6.954;2022-08-01T07:42:45;20.50;99.90
6270;DHT22;3168;51.684;6.954;2022-08-01T07:45:23;20.70;99.90
6270;DHT22;3168;51.684;6.954;2022-08-01T07:48:03;20.90;99.90
6270;DHT22;3168;51.684;6.954;2022-08-01T07:50:41;21.00;99.90
6270;DHT22;3168;51.684;6.954;2022-08-01T07:53:19;21.00;99.90
6270;DHT22;3168;51.684;6.954;2022-08-01T07:55:57;21.00;99.90
6270;DHT22;3168;51.684;6.954;2022-08-01T07:58:36;21.20;99.90
6270;DHT22;3168;51.684;6.954;2022-08-01T08:01:14;21.20;99.90
6270;DHT22;3168;51.684;6.954;2022-08-01T08:03:52;21.20;99.90
6270;DHT22;3168;51.684;6.954;2022-08-01T08:06:30;21.20;99.90
6270;DHT22;3168;51.684;6.954;2022-08-01T08:09:08;21.00;97.90
6270;DHT22;3168;51.684;6.954;2022-08-01T08:11:46;20.80;97.90
6270;DHT22;3168;51.684;6.954;2022-08-01T08:14:24;21.00;99.90
6270;DHT22;3168;51.684;6.954;2022-08-01T08:17:03;21.00;99.90
6270;DHT22;3168;51.684;6.954;2022-08-01T08:19:41;21.10;99.90
6270;DHT22;3168;51.684;6.954;2022-08-01T08:22:19;21.00;99.90
6270;DHT22;3168;51.684;6.954;2022-08-01T08:24:57;21.10;99.90
6270;DHT22;3168;51.684;6.954;2022-08-01T08:27:36;21.20;99.90
6270;DHT22;3168;51.684;6.954;2022-08-01T08:30:14;21.30;99.90
6270;DHT22;3168;51.684;6.954;2022-08-01T08:32:52;21.40;99.90
6270;DHT22;3168;51.684;6.954;2022-08-01T08:35:30;21.50;99.30
6270;DHT22;3168;51.684;6.954;2022-08-01T08:38:08;21.60;97.70
6270;DHT22;3168;51.684;6.954;2022-08-01T08:40:46;21.50;95.70
6270;DHT22;3168;51.684;6.954;2022-08-01T08:43:25;21.60;94.80
6270;DHT22;3168;51.684;6.954;2022-08-01T08:46:03;21.60;92.00
6270;DHT22;3168;51.684;6.954;2022-08-01T08:48:41;21.40;94.40
6270;DHT22;3168;51.684;6.954;2022-08-01T08:51:19;21.40;94.30
6270;DHT22;3168;51.684;6.954;2022-08-01T08:53:57;21.30;92.00
6270;DHT22;3168;51.684;6.954;2022-08-01T08:56:35;21.40;91.50
6270;DHT22;3168;51.684;6.954;2022-08-01T08:59:14;21.50;92.00
6270;DHT22;3168;51.684;6.954;2022-08-01T09:01:52;21.50;92.40
6270;DHT22;3168;51.684;6.954;2022-08-01T09:04:30;21.40;89.80
6270;DHT22;3168;51.684;6.954;2022-08-01T09:07:08;21.50;91.80
6270;DHT22;3168;51.684;6.954;2022-08-01T09:09:46;21.50;91.20
6270;DHT22;3168;51.684;6.954;2022-08-01T09:12:24;21.50;89.50
6270;DHT22;3168;51.684;6.954;2022-08-01T09:15:03;21.50;91.40
6270;DHT22;3168;51.684;6.954;2022-08-01T09:17:41;21.60;91.90
6270;DHT22;3168;51.684;6.954;2022-08-01T09:20:22;21.60;93.80
6270;DHT22;3168;51.684;6.954;2022-08-01T09:23:00;21.50;93.70
6270;DHT22;3168;51.684;6.954;2022-08-01T09:25:50;21.20;91.50
6270;DHT22;3168;51.684;6.954;2022-08-01T09:28:28;21.10;92.70
6270;DHT22;3168;51.684;6.954;2022-08-01T09:31:07;21.10;94.40
6270;DHT22;3168;51.684;6.954;2022-08-01T09:33:53;20.60;93.50
6270;DHT22;3168;51.684;6.954;2022-08-01T09:36:45;20.50;92.20
6270;DHT22;3168;51.684;6.954;2022-08-01T09:39:25;20.60;93.40
6270;DHT22;3168;51.684;6.954;2022-08-01T09:42:18;20.90;91.40
6270;DHT22;3168;51.684;6.954;2022-08-01T09:44:55;21.00;90.20
6270;DHT22;3168;51.684;6.954;2022-08-01T09:47:36;21.00;88.70
6270;DHT22;3168;51.684;6.954;2022-08-01T09:50:14;21.00;90.90
6270;DHT22;3168;51.684;6.954;2022-08-01T09:52:53;21.20;91.70
6270;DHT22;3168;51.684;6.954;2022-08-01T09:55:32;21.30;85.20
6270;DHT22;3168;51.684;6.954;2022-08-01T09:58:10;21.30;85.10
6270;DHT22;3168;51.684;6.954;2022-08-01T10:00:58;21.30;91.70
6270;DHT22;3168;51.684;6.954;2022-08-01T10:03:35;21.20;91.70
6270;DHT22;3168;51.684;6.954;2022-08-01T10:06:20;21.40;84.70
6270;DHT22;3168;51.684;6.954;2022-08-01T10:08:57;21.20;90.20
6270;DHT22;3168;51.684;6.954;2022-08-01T10:11:36;21.20;92.20
6270;DHT22;3168;51.684;6.954;2022-08-01T10:14:14;21.30;89.60
6270;DHT22;3168;51.684;6.954;2022-08-01T10:16:53;21.30;76.10
6270;DHT22;3168;51.684;6.954;2022-08-01T10:19:31;21.60;75.10
6270;DHT22;3168;51.684;6.954;2022-08-01T10:22:10;21.70;79.90
6270;DHT22;3168;51.684;6.954;2022-08-01T10:24:47;21.30;78.60
6270;DHT22;3168;51.684;6.954;2022-08-01T10:27:26;21.20;87.70
6270;DHT22;3168;51.684;6.954;2022-08-01T10:30:04;21.00;90.10
6270;DHT22;3168;51.684;6.954;2022-08-01T10:32:43;21.10;86.80
6270;DHT22;3168;51.684;6.954;2022-08-01T10:35:21;21.30;79.10
6270;DHT22;3168;51.684;6.954;2022-08-01T10:37:59;21.40;79.50
6270;DHT22;3168;51.684;6.954;2022-08-01T10:40:37;21.40;73.90
6270;DHT22;3168;51.684;6.954;2022-08-01T10:43:16;21.30;75.50
6270;DHT22;3168;51.684;6.954;2022-08-01T10:45:54;21.40;70.30
6270;DHT22;3168;51.684;6.954;2022-08-01T10:48:41;21.70;67.00
6270;DHT22;3168;51.684;6.954;2022-08-01T10:51:17;21.80;63.70
6270;DHT22;3168;51.684;6.954;2022-08-01T10:53:55;21.80;74.60
6270;DHT22;3168;51.684;6.954;2022-08-01T10:56:39;22.00;62.90
6270;DHT22;3168;51.684;6.954;2022-08-01T10:59:22;22.00;64.50
6270;DHT22;3168;51.684;6.954;2022-08-01T11:02:00;21.90;58.20
6270;DHT22;3168;51.684;6.954;2022-08-01T11:04:44;21.90;64.40
6270;DHT22;3168;51.684;6.954;2022-08-01T11:07:22;22.50;56.40
6270;DHT22;3168;51.684;6.954;2022-08-01T11:10:04;22.30;21.70
6270;DHT22;3168;51.684;6.954;2022-08-01T11:12:41;22.00;39.00
6270;DHT22;3168;51.684;6.954;2022-08-01T11:15:20;21.90;49.30
6270;DHT22;3168;51.684;6.954;2022-08-01T11:18:36;22.30;39.30
6270;DHT22;3168;51.684;6.954;2022-08-01T11:20:59;22.20;44.40
6270;DHT22;3168;51.684;6.954;2022-08-01T11:23:46;21.80;52.30
6270;DHT22;3168;51.684;6.954;2022-08-01T11:26:15;21.50;66.90
6270;DHT22;3168;51.684;6.954;2022-08-01T11:31:43;21.50;57.10
6270;DHT22;3168;51.684;6.954;2022-08-01T11:34:41;21.50;54.90
6270;DHT22;3168;51.684;6.954;2022-08-01T11:42:35;21.70;59.20
6270;DHT22;3168;51.684;6.954;2022-08-01T11:45:13;21.30;77.20
6270;DHT22;3168;51.684;6.954;2022-08-01T11:47:51;21.30;65.40
6270;DHT22;3168;51.684;6.954;2022-08-01T11:50:32;21.00;71.30
6270;DHT22;3168;51.684;6.954;2022-08-01T11:53:10;20.60;79.50
6270;DHT22;3168;51.684;6.954;2022-08-01T11:55:49;20.70;81.60
6270;DHT22;3168;51.684;6.954;2022-08-01T11:58:27;20.60;81.50
6270;DHT22;3168;51.684;6.954;2022-08-01T12:01:05;20.90;79.60
6270;DHT22;3168;51.684;6.954;2022-08-01T12:03:43;21.30;76.10
6270;DHT22;3168;51.684;6.954;2022-08-01T12:06:27;21.50;61.00
6270;DHT22;3168;51.684;6.954;2022-08-01T12:09:15;21.30;66.80
6270;DHT22;3168;51.684;6.954;2022-08-01T12:11:52;21.40;53.90
6270;DHT22;3168;51.684;6.954;2022-08-01T12:14:31;21.30;62.50
6270;DHT22;3168;51.684;6.954;2022-08-01T12:17:09;21.60;60.10
6270;DHT22;3168;51.684;6.954;2022-08-01T12:19:48;21.70;43.50
6270;DHT22;3168;51.684;6.954;2022-08-01T12:22:25;21.70;50.50
6270;DHT22;3168;51.684;6.954;2022-08-01T12:25:07;21.80;49.10
6270;DHT22;3168;51.684;6.954;2022-08-01T12:27:45;22.20;45.90
6270;DHT22;3168;51.684;6.954;2022-08-01T12:30:23;22.50;26.30
6270;DHT22;3168;51.684;6.954;2022-08-01T12:33:04;22.40;30.30
6270;DHT22;3168;51.684;6.954;2022-08-01T12:35:41;22.40;24.40
6270;DHT22;3168;51.684;6.954;2022-08-01T12:38:20;22.40;21.70
6270;DHT22;3168;51.684;6.954;2022-08-01T12:40:57;22.40;21.00
6270;DHT22;3168;51.684;6.954;2022-08-01T12:43:35;22.50;23.40
6270;DHT22;3168;51.684;6.954;2022-08-01T12:46:14;22.60;24.00
6270;DHT22;3168;51.684;6.954;2022-08-01T12:48:52;22.40;26.30
6270;DHT22;3168;51.684;6.954;2022-08-01T12:51:30;22.50;26.60
6270;DHT22;3168;51.684;6.954;2022-08-01T12:54:08;22.80;13.80
6270;DHT22;3168;51.684;6.954;2022-08-01T12:56:46;22.80;11.00
6270;DHT22;3168;51.684;6.954;2022-08-01T12:59:26;22.90;8.70
6270;DHT22;3168;51.684;6.954;2022-08-01T13:02:07;22.70;17.70
6270;DHT22;3168;51.684;6.954;2022-08-01T13:04:49;22.70;16.90
6270;DHT22;3168;51.684;6.954;2022-08-01T13:07:35;22.80;15.20
6270;DHT22;3168;51.684;6.954;2022-08-01T13:10:13;22.80;10.20
6270;DHT22;3168;51.684;6.954;2022-08-01T13:12:51;23.10;5.20
6270;DHT22;3168;51.684;6.954;2022-08-01T13:15:29;23.10;10.30
6270;DHT22;3168;51.684;6.954;2022-08-01T13:21:11;22.90;4.90
6270;DHT22;3168;51.684;6.954;2022-08-01T13:24:07;22.80;13.80
6270;DHT22;3168;51.684;6.954;2022-08-01T13:26:49;22.90;13.90
6270;DHT22;3168;51.684;6.954;2022-08-01T13:29:33;23.40;2.50
6270;DHT22;3168;51.684;6.954;2022-08-01T13:32:16;23.20;1.00
6270;DHT22;3168;51.684;6.954;2022-08-01T13:35:00;23.30;3.30
6270;DHT22;3168;51.684;6.954;2022-08-01T13:37:32;23.20;2.50
6270;DHT22;3168;51.684;6.954;2022-08-01T13:40:11;23.20;8.60
6270;DHT22;3168;51.684;6.954;2022-08-01T13:42:49;23.40;11.90
6270;DHT22;3168;51.684;6.954;2022-08-01T13:45:27;23.40;1.00
6270;DHT22;3168;51.684;6.954;2022-08-01T13:48:05;23.00;1.00
6270;DHT22;3168;51.684;6.954;2022-08-01T13:50:43;22.80;3.80
6270;DHT22;3168;51.684;6.954;2022-08-01T13:53:22;23.30;1.00
6270;DHT22;3168;51.684;6.954;2022-08-01T13:56:00;23.10;1.00
6270;DHT22;3168;51.684;6.954;2022-08-01T13:58:38;22.80;1.00
6270;DHT22;3168;51.684;6.954;2022-08-01T14:01:16;22.90;1.00
6270;DHT22;3168;51.684;6.954;2022-08-01T14:03:54;22.90;1.00
6270;DHT22;3168;51.684;6.954;2022-08-01T14:06:32;22.80;3.20
6270;DHT22;3168;51.684;6.954;2022-08-01T14:09:10;23.10;1.00
6270;DHT22;3168;51.684;6.954;2022-08-01T14:11:49;23.10;1.00
6270;DHT22;3168;51.684;6.954;2022-08-01T14:14:27;23.20;1.00
6270;DHT22;3168;51.684;6.954;2022-08-01T14:17:05;23.00;1.00
6270;DHT22;3168;51.684;6.954;2022-08-01T14:19:43;23.50;1.00
6270;DHT22;3168;51.684;6.954;2022-08-01T14:22:21;23.60;1.00
6270;DHT22;3168;51.684;6.954;2022-08-01T14:25:00;23.20;1.00
6270;DHT22;3168;51.684;6.954;2022-08-01T14:27:38;23.30;1.00
6270;DHT22;3168;51.684;6.954;2022-08-01T14:30:16;23.60;1.00
6270;DHT22;3168;51.684;6.954;2022-08-01T14:32:54;23.90;1.00
6270;DHT22;3168;51.684;6.954;2022-08-01T14:35:32;24.00;1.00
6270;DHT22;3168;51.684;6.954;2022-08-01T14:38:11;23.70;1.00
6270;DHT22;3168;51.684;6.954;2022-08-01T14:40:49;23.90;1.00
6270;DHT22;3168;51.684;6.954;2022-08-01T14:43:27;23.80;1.00
6270;DHT22;3168;51.684;6.954;2022-08-01T14:46:05;23.40;1.00
6270;DHT22;3168;51.684;6.954;2022-08-01T14:48:44;22.90;1.00
6270;DHT22;3168;51.684;6.954;2022-08-01T14:51:22;22.80;1.00
6270;DHT22;3168;51.684;6.954;2022-08-01T14:54:00;22.60;1.00
6270;DHT22;3168;51.684;6.954;2022-08-01T14:56:38;22.40;1.00
6270;DHT22;3168;51.684;6.954;2022-08-01T14:59:16;22.50;1.00
6270;DHT22;3168;51.684;6.954;2022-08-01T15:01:55;22.60;1.00
6270;DHT22;3168;51.684;6.954;2022-08-01T15:04:33;22.50;1.00
6270;DHT22;3168;51.684;6.954;2022-08-01T15:07:11;22.60;1.00
6270;DHT22;3168;51.684;6.954;2022-08-01T15:09:49;22.60;1.00
6270;DHT22;3168;51.684;6.954;2022-08-01T15:12:27;22.50;1.00
6270;DHT22;3168;51.684;6.954;2022-08-01T15:15:07;22.90;1.00
6270;DHT22;3168;51.684;6.954;2022-08-01T15:17:45;22.90;1.00
6270;DHT22;3168;51.684;6.954;2022-08-01T15:20:23;22.90;1.00
6270;DHT22;3168;51.684;6.954;2022-08-01T15:23:01;22.90;1.00
6270;DHT22;3168;51.684;6.954;2022-08-01T15:25:39;22.90;1.00
6270;DHT22;3168;51.684;6.954;2022-08-01T15:28:18;23.10;1.00
6270;DHT22;3168;51.684;6.954;2022-08-01T15:30:56;23.20;1.00
6270;DHT22;3168;51.684;6.954;2022-08-01T15:33:34;23.30;1.00
6270;DHT22;3168;51.684;6.954;2022-08-01T15:36:12;23.80;1.00
6270;DHT22;3168;51.684;6.954;2022-08-01T15:38:50;23.70;1.00
6270;DHT22;3168;51.684;6.954;2022-08-01T15:41:28;24.20;1.00
6270;DHT22;3168;51.684;6.954;2022-08-01T15:44:06;24.30;1.00
6270;DHT22;3168;51.684;6.954;2022-08-01T15:46:46;24.10;1.00
6270;DHT22;3168;51.684;6.954;2022-08-01T15:49:24;24.70;1.00
6270;DHT22;3168;51.684;6.954;2022-08-01T15:52:02;24.40;1.00
6270;DHT22;3168;51.684;6.954;2022-08-01T15:54:40;23.50;1.00
6270;DHT22;3168;51.684;6.954;2022-08-01T15:57:18;23.50;1.00
6270;DHT22;3168;51.684;6.954;2022-08-01T15:59:56;23.60;1.00
6270;DHT22;3168;51.684;6.954;2022-08-01T16:02:34;23.70;1.00
6270;DHT22;3168;51.684;6.954;2022-08-01T16:05:12;23.60;1.00
6270;DHT22;3168;51.684;6.954;2022-08-01T16:07:51;23.50;1.00
6270;DHT22;3168;51.684;6.954;2022-08-01T16:10:29;23.50;1.00
6270;DHT22;3168;51.684;6.954;2022-08-01T16:13:07;23.30;1.00
6270;DHT22;3168;51.684;6.954;2022-08-01T16:15:45;23.40;1.00
6270;DHT22;3168;51.684;6.954;2022-08-01T16:18:23;23.40;1.00
6270;DHT22;3168;51.684;6.954;2022-08-01T16:21:02;23.30;1.00
6270;DHT22;3168;51.684;6.954;2022-08-01T16:23:40;23.20;1.00
6270;DHT22;3168;51.684;6.954;2022-08-01T16:26:18;23.20;1.00
6270;DHT22;3168;51.684;6.954;2022-08-01T16:28:56;23.20;1.00
6270;DHT22;3168;51.684;6.954;2022-08-01T16:31:34;23.20;1.00
6270;DHT22;3168;51.684;6.954;2022-08-01T16:34:13;23.20;1.00
6270;DHT22;3168;51.684;6.954;2022-08-01T16:36:51;22.90;1.00
6270;DHT22;3168;51.684;6.954;2022-08-01T16:39:29;22.80;1.00
6270;DHT22;3168;51.684;6.954;2022-08-01T16:42:07;22.80;1.00
6270;DHT22;3168;51.684;6.954;2022-08-01T16:44:45;23.10;1.00
6270;DHT22;3168;51.684;6.954;2022-08-01T16:47:23;23.30;1.00
6270;DHT22;3168;51.684;6.954;2022-08-01T16:50:01;23.00;1.00
6270;DHT22;3168;51.684;6.954;2022-08-01T16:52:39;22.90;1.00
6270;DHT22;3168;51.684;6.954;2022-08-01T16:55:17;23.10;1.00
6270;DHT22;3168;51.684;6.954;2022-08-01T16:57:56;23.10;1.00
6270;DHT22;3168;51.684;6.954;2022-08-01T17:00:34;23.20;1.00
6270;DHT22;3168;51.684;6.954;2022-08-01T17:03:13;23.20;1.00
6270;DHT22;3168;51.684;6.954;2022-08-01T17:05:50;23.10;1.00
6270;DHT22;3168;51.684;6.954;2022-08-01T17:08:28;23.20;1.00
6270;DHT22;3168;51.684;6.954;2022-08-01T17:11:07;23.10;1.00
6270;DHT22;3168;51.684;6.954;2022-08-01T17:13:45;23.10;1.00
6270;DHT22;3168;51.684;6.954;2022-08-01T17:16:23;23.00;1.00
6270;DHT22;3168;51.684;6.954;2022-08-01T17:19:01;22.90;1.00
6270;DHT22;3168;51.684;6.954;2022-08-01T17:21:39;22.80;1.00
6270;DHT22;3168;51.684;6.954;2022-08-01T17:24:17;22.70;1.00
6270;DHT22;3168;51.684;6.954;2022-08-01T17:26:56;22.60;1.00
6270;DHT22;3168;51.684;6.954;2022-08-01T17:29:34;22.50;1.00
6270;DHT22;3168;51.684;6.954;2022-08-01T17:32:12;22.50;1.00